Capitol Hill, Washington
Current Conditions -  °F | °C
As of 11:53 AM on Sunday 25 Jan 2015 (Local Time) from KBFI Reporting Station
Broken Clouds Broken Clouds  
Wind Chill: 61°   Ceiling: 20000
Heat Index: 61°   Visibility: 10mi
Dew Point: 48°   Wind: 0mph
Humidity: 62%   Direction: NA
Pressure: 30.13"   Gusts: NA
Location:  47.6341°N, 122.322°W
Report Text: KBFI 251953Z 00000KT 10SM FEW015 BKN200 16/09 A3013 RMK AO2 SLP203 T01610089
Loading
Personal Weather Stations






























Interactive Weather Map New forecast layout! Learn more

10-Day Weather Forecast

Advertisements
Track Severe Weather on mobile